createdAt,value
2018-04-30T00:01:36.353Z,98411.05
2018-04-30T00:04:03.835Z,98405.99
2018-04-30T00:06:31.318Z,98407.03
2018-04-30T00:08:58.777Z,98403.83
2018-04-30T00:11:26.748Z,98403.26
2018-04-30T00:13:54.227Z,98405.56
2018-04-30T00:16:21.702Z,98408.80
2018-04-30T00:18:49.149Z,98402.38
2018-04-30T00:21:16.602Z,98402.69
2018-04-30T00:23:44.074Z,98407.30
2018-04-30T00:26:11.584Z,98405.02
2018-04-30T00:28:39.714Z,98403.27
2018-04-30T00:31:07.177Z,98403.41
2018-04-30T00:33:34.660Z,98405.32
2018-04-30T00:36:02.119Z,98409.27
2018-04-30T00:38:29.590Z,98399.87
2018-04-30T00:40:57.070Z,98401.52
2018-04-30T00:43:24.529Z,98399.87
2018-04-30T00:45:52.075Z,98390.24
2018-04-30T00:48:19.575Z,98394.77
2018-04-30T00:50:47.058Z,98387.46
2018-04-30T00:53:14.574Z,98391.27
2018-04-30T00:55:42.033Z,98391.27
2018-04-30T00:58:09.634Z,98388.38
2018-04-30T01:00:37.257Z,98388.02
2018-04-30T01:03:04.725Z,98385.39
2018-04-30T01:05:32.195Z,98388.88
2018-04-30T01:07:59.681Z,98387.56
2018-04-30T01:10:27.141Z,98383.50
2018-04-30T01:12:54.625Z,98386.28
2018-04-30T01:15:22.100Z,98386.13
2018-04-30T01:17:49.557Z,98397.44
2018-04-30T01:20:17.016Z,98385.94
2018-04-30T01:22:44.502Z,98393.25
2018-04-30T01:25:11.964Z,98385.53
2018-04-30T01:27:39.422Z,98381.77
2018-04-30T01:30:06.905Z,98378.52
2018-04-30T01:32:34.366Z,98378.07
2018-04-30T01:35:01.890Z,98375.59
2018-04-30T01:37:29.349Z,98376.09
2018-04-30T01:39:56.827Z,98374.84
2018-04-30T01:42:24.311Z,98367.48
2018-04-30T01:44:51.797Z,98373.16
2018-04-30T01:47:19.254Z,98368.60
2018-04-30T01:49:46.722Z,98367.73
2018-04-30T01:52:14.182Z,98355.06
2018-04-30T01:54:41.697Z,98358.48
2018-04-30T01:57:09.241Z,98363.73
2018-04-30T01:59:36.694Z,98355.41
2018-04-30T02:02:04.220Z,98355.09
2018-04-30T02:04:31.842Z,98355.20
2018-04-30T02:06:59.333Z,98351.78
2018-04-30T02:09:26.789Z,98337.48
2018-04-30T02:11:54.328Z,98339.45
2018-04-30T02:14:21.870Z,98331.28
2018-04-30T02:16:49.342Z,98329.23
2018-04-30T02:19:16.860Z,98326.88
2018-04-30T02:21:44.318Z,98337.20
2018-04-30T02:24:11.817Z,98341.95
2018-04-30T02:26:39.261Z,98337.95
2018-04-30T02:29:06.770Z,98326.52
2018-04-30T02:31:34.247Z,98326.47
2018-04-30T02:34:01.738Z,98331.22
2018-04-30T02:36:29.202Z,98344.39
2018-04-30T02:38:56.687Z,98354.81
2018-04-30T02:41:24.143Z,98362.75
2018-04-30T02:43:51.598Z,98356.38
2018-04-30T02:46:19.066Z,98353.84
2018-04-30T02:48:46.526Z,98336.12
2018-04-30T02:51:14.041Z,98336.14
2018-04-30T02:53:41.512Z,98341.98
2018-04-30T02:56:08.966Z,98344.38
2018-04-30T02:58:36.438Z,98348.19
2018-04-30T03:01:04.018Z,98342.25
2018-04-30T03:03:31.425Z,98339.40
2018-04-30T03:05:58.878Z,98340.87
2018-04-30T03:08:26.357Z,98342.30
2018-04-30T03:10:53.823Z,98347.09
2018-04-30T03:13:21.324Z,98348.66
2018-04-30T03:15:48.796Z,98340.13
2018-04-30T03:18:16.270Z,98337.22
2018-04-30T03:20:43.732Z,98338.58
2018-04-30T03:23:11.177Z,98334.02
2018-04-30T03:25:38.641Z,98337.02
2018-04-30T03:28:06.126Z,98333.83
2018-04-30T03:30:33.600Z,98331.13
2018-04-30T03:33:01.069Z,98339.86
2018-04-30T03:35:28.526Z,98332.94
2018-04-30T03:37:56.025Z,98339.75
2018-04-30T03:40:23.477Z,98331.20
2018-04-30T03:42:50.926Z,98327.17
2018-04-30T03:45:18.406Z,98331.24
2018-04-30T03:47:45.873Z,98328.77
2018-04-30T03:50:13.418Z,98338.55
2018-04-30T03:52:40.875Z,98341.13
2018-04-30T03:55:08.343Z,98339.99
2018-04-30T03:57:35.803Z,98345.81
2018-04-30T04:00:03.270Z,98341.25
2018-04-30T04:05:51.478Z,98344.87
2018-04-30T04:08:18.961Z,98349.89
2018-04-30T04:10:46.415Z,98349.31
2018-04-30T04:13:13.874Z,98349.34
2018-04-30T04:15:41.366Z,98344.35
2018-04-30T04:18:08.823Z,98351.88
2018-04-30T04:20:36.288Z,98345.33
2018-04-30T04:23:03.763Z,98340.37
2018-04-30T04:25:31.259Z,98339.25
2018-04-30T04:27:58.757Z,98340.67
2018-04-30T04:30:26.234Z,98340.55
2018-04-30T04:32:53.701Z,98338.84
2018-04-30T04:35:21.187Z,98335.84
2018-04-30T04:37:48.655Z,98341.89
2018-04-30T04:40:16.151Z,98342.11
2018-04-30T04:42:43.664Z,98348.38
2018-04-30T04:45:11.152Z,98342.11
2018-04-30T04:47:38.634Z,98349.97
2018-04-30T04:50:06.166Z,98356.23
2018-04-30T04:52:33.710Z,98354.17
2018-04-30T04:55:01.192Z,98357.52
2018-04-30T05:00:01.486Z,98350.04
2018-04-30T05:02:28.968Z,98354.28
2018-04-30T05:04:56.460Z,98352.96
2018-04-30T05:07:23.951Z,98354.77
2018-04-30T05:09:51.407Z,98347.36
2018-04-30T05:12:18.873Z,98350.34
2018-04-30T05:14:46.374Z,98350.51
2018-04-30T05:17:13.918Z,98355.88
2018-04-30T05:19:42.123Z,98357.98
2018-04-30T05:22:09.605Z,98354.91
2018-04-30T05:24:37.081Z,98355.64
2018-04-30T05:27:04.540Z,98354.13
2018-04-30T05:29:32.384Z,98354.45
2018-04-30T05:31:59.880Z,98355.82
2018-04-30T05:34:27.408Z,98351.53
2018-04-30T05:36:54.875Z,98347.56
2018-04-30T05:39:22.371Z,98349.28
2018-04-30T05:41:50.134Z,98360.57
2018-04-30T05:44:17.627Z,98351.56
2018-04-30T05:46:45.121Z,98347.35
2018-04-30T05:49:12.605Z,98346.00
2018-04-30T05:51:40.064Z,98341.84
2018-04-30T05:54:07.546Z,98337.86
2018-04-30T05:56:35.010Z,98338.47
2018-04-30T05:59:02.552Z,98333.48
2018-04-30T06:01:30.003Z,98329.34
2018-04-30T06:03:57.459Z,98334.11
2018-04-30T06:06:24.935Z,98333.89
2018-04-30T06:08:52.416Z,98338.84
2018-04-30T06:11:19.892Z,98334.81
2018-04-30T06:13:47.406Z,98335.73
2018-04-30T06:16:14.882Z,98339.31
2018-04-30T06:18:42.391Z,98339.25
2018-04-30T06:21:09.911Z,98329.72
2018-04-30T06:23:37.451Z,98329.97
2018-04-30T06:26:04.982Z,98323.33
2018-04-30T06:28:32.445Z,98313.17
2018-04-30T06:30:59.917Z,98313.39
2018-04-30T06:33:27.457Z,98310.73
2018-04-30T06:35:54.999Z,98307.22
2018-04-30T06:38:22.413Z,98301.23
2018-04-30T06:40:49.892Z,98286.73
2018-04-30T06:43:17.369Z,98286.31
2018-04-30T06:45:44.848Z,98300.41
2018-04-30T06:48:12.336Z,98295.61
2018-04-30T06:50:39.822Z,98287.30
2018-04-30T06:53:07.302Z,98279.58
2018-04-30T06:55:34.760Z,98289.02
2018-04-30T06:58:02.282Z,98276.81
2018-04-30T07:00:29.749Z,98273.52
2018-04-30T07:02:57.224Z,98294.48
2018-04-30T07:05:24.735Z,98304.31
2018-04-30T07:07:52.346Z,98313.80
2018-04-30T07:10:19.802Z,98333.20
2018-04-30T07:12:47.259Z,98328.30
2018-04-30T07:15:14.730Z,98333.91
2018-04-30T07:17:42.233Z,98327.97
2018-04-30T07:20:09.770Z,98331.84
2018-04-30T07:22:37.170Z,98327.68
2018-04-30T07:25:04.700Z,98336.27
2018-04-30T07:27:32.208Z,98340.22
2018-04-30T07:29:59.697Z,98339.33
2018-04-30T07:32:27.154Z,98344.53
2018-04-30T07:34:54.614Z,98346.09
2018-04-30T07:37:22.137Z,98349.47
2018-04-30T07:39:49.618Z,98352.02
2018-04-30T07:42:17.099Z,98355.56
2018-04-30T07:44:44.565Z,98344.17
2018-04-30T07:47:12.033Z,98334.64
2018-04-30T07:49:39.488Z,98336.45
2018-04-30T07:52:06.979Z,98332.80
2018-04-30T07:54:34.503Z,98331.98
2018-04-30T07:57:01.905Z,98332.93
2018-04-30T07:59:29.407Z,98336.52
2018-04-30T08:01:56.866Z,98334.42
2018-04-30T08:04:24.342Z,98332.75
2018-04-30T08:06:51.826Z,98340.86
2018-04-30T08:09:19.284Z,98340.48
2018-04-30T08:11:46.781Z,98336.12
2018-04-30T08:14:14.226Z,98337.80
2018-04-30T08:16:41.774Z,98329.36
2018-04-30T08:19:09.269Z,98339.32
2018-04-30T08:21:37.062Z,98342.36
2018-04-30T08:24:04.483Z,98345.06
2018-04-30T08:26:31.972Z,98331.52
2018-04-30T08:28:59.454Z,98342.84
2018-04-30T08:31:27.369Z,98340.88
2018-04-30T08:33:54.864Z,98330.38
2018-04-30T08:36:22.401Z,98342.16
2018-04-30T08:38:49.881Z,98338.45
2018-04-30T08:41:17.374Z,98334.48
2018-04-30T08:43:45.112Z,98331.27
2018-04-30T08:46:13.176Z,98328.47
2018-04-30T08:48:40.708Z,98323.52
2018-04-30T08:51:08.226Z,98330.13
2018-04-30T08:53:35.690Z,98322.41
2018-04-30T08:56:03.150Z,98318.44
2018-04-30T08:58:30.618Z,98318.56
2018-04-30T09:00:58.079Z,98320.05
2018-04-30T09:03:25.649Z,98311.09
2018-04-30T09:05:53.176Z,98313.27
2018-04-30T09:08:20.646Z,98310.75
2018-04-30T09:10:48.376Z,98311.61
2018-04-30T09:13:15.850Z,98300.31
2018-04-30T09:15:43.325Z,98312.06
2018-04-30T09:18:10.835Z,98317.13
2018-04-30T09:20:38.324Z,98315.63
2018-04-30T09:23:05.793Z,98301.84
2018-04-30T09:25:34.754Z,98308.33
2018-04-30T09:28:02.323Z,98299.50
2018-04-30T09:30:29.803Z,98298.26
2018-04-30T09:32:57.293Z,98281.45
2018-04-30T09:35:25.601Z,98303.31
2018-04-30T09:37:53.106Z,98307.08
2018-04-30T09:40:20.612Z,98294.55
2018-04-30T09:42:48.340Z,98290.79
2018-04-30T09:45:15.859Z,98300.60
2018-04-30T09:47:43.330Z,98307.36
2018-04-30T09:50:10.806Z,98304.80
2018-04-30T09:52:38.274Z,98294.52
2018-04-30T09:55:05.752Z,98296.18
2018-04-30T09:57:33.246Z,98292.31
2018-04-30T10:00:00.708Z,98288.30
2018-04-30T10:02:28.175Z,98277.31
2018-04-30T10:04:55.686Z,98274.29
2018-04-30T10:07:23.242Z,98280.05
2018-04-30T10:09:50.691Z,98281.94
2018-04-30T10:12:18.944Z,98271.77
2018-04-30T10:14:46.423Z,98279.41
2018-04-30T10:17:13.936Z,98280.64
2018-04-30T10:19:41.444Z,98268.49
2018-04-30T10:22:08.916Z,98279.34
2018-04-30T10:24:36.406Z,98271.50
2018-04-30T10:27:03.919Z,98270.08
2018-04-30T10:29:31.430Z,98279.73
2018-04-30T10:31:58.911Z,98274.73
2018-04-30T10:34:26.411Z,98275.19
2018-04-30T10:36:53.895Z,98275.14
2018-04-30T10:39:21.415Z,98268.22
2018-04-30T10:41:48.873Z,98260.58
2018-04-30T10:44:16.576Z,98257.23
2018-04-30T10:46:44.053Z,98263.48
2018-04-30T10:49:11.544Z,98253.20
2018-04-30T10:51:39.119Z,98262.31
2018-04-30T10:54:06.575Z,98273.64
2018-04-30T10:56:34.060Z,98272.88
2018-04-30T10:59:01.553Z,98279.46
2018-04-30T11:01:29.041Z,98279.27
2018-04-30T11:03:56.518Z,98282.01
2018-04-30T11:06:24.061Z,98269.48
2018-04-30T11:08:51.524Z,98272.08
2018-04-30T11:11:18.988Z,98276.39
2018-04-30T11:13:46.457Z,98267.24
2018-04-30T11:16:14.143Z,98270.15
2018-04-30T11:18:41.619Z,98275.81
2018-04-30T11:21:09.102Z,98260.66
2018-04-30T11:23:36.653Z,98278.60
2018-04-30T11:26:04.727Z,98277.58
2018-04-30T11:28:32.203Z,98282.92
2018-04-30T11:30:59.718Z,98278.37
2018-04-30T11:33:27.219Z,98269.71
2018-04-30T11:35:54.752Z,98266.75
2018-04-30T11:38:22.283Z,98267.54
2018-04-30T11:40:49.796Z,98283.79
2018-04-30T11:43:17.304Z,98269.44
2018-04-30T11:45:45.466Z,98277.32
2018-04-30T11:48:12.975Z,98299.00
2018-04-30T11:50:40.471Z,98291.45
2018-04-30T11:53:07.983Z,98291.43
2018-04-30T11:55:35.474Z,98296.95
2018-04-30T11:58:03.000Z,98307.21
2018-04-30T12:00:30.452Z,98306.27
2018-04-30T12:02:57.949Z,98320.69
2018-04-30T12:05:25.438Z,98313.06
2018-04-30T12:07:52.938Z,98321.92
2018-04-30T12:10:20.455Z,98319.21
2018-04-30T12:12:47.948Z,98321.43
2018-04-30T12:15:15.458Z,98320.20
2018-04-30T12:17:42.934Z,98326.70
2018-04-30T12:20:10.429Z,98329.90
2018-04-30T12:22:37.902Z,98339.90
2018-04-30T12:25:05.465Z,98324.70
2018-04-30T12:27:32.931Z,98329.73
2018-04-30T12:30:00.419Z,98329.48
2018-04-30T12:32:28.515Z,98332.34
2018-04-30T12:34:55.987Z,98332.05
2018-04-30T12:37:23.530Z,98319.53
2018-04-30T12:39:51.205Z,98330.77
2018-04-30T12:42:18.695Z,98325.38
2018-04-30T12:44:46.216Z,98314.03
2018-04-30T12:47:13.712Z,98309.05
2018-04-30T12:49:41.234Z,98316.46
2018-04-30T12:52:08.698Z,98304.48
2018-04-30T12:54:36.161Z,98300.33
2018-04-30T12:57:03.640Z,98312.70
2018-04-30T12:59:31.166Z,98316.14
2018-04-30T13:01:58.633Z,98311.64
2018-04-30T13:04:26.098Z,98306.52
2018-04-30T13:06:53.587Z,98300.98
2018-04-30T13:09:21.153Z,98296.53
2018-04-30T13:11:48.638Z,98291.81
2018-04-30T13:14:16.131Z,98291.27
2018-04-30T13:16:43.619Z,98294.81
2018-04-30T13:19:11.125Z,98286.30
2018-04-30T13:21:38.601Z,98289.28
2018-04-30T13:24:06.104Z,98275.08
2018-04-30T13:26:34.074Z,98283.22
2018-04-30T13:29:01.563Z,98271.33
2018-04-30T13:31:29.060Z,98267.25
2018-04-30T13:33:56.531Z,98258.92
2018-04-30T13:36:23.986Z,98267.16
2018-04-30T13:38:51.452Z,98263.20
2018-04-30T13:41:18.938Z,98259.45
2018-04-30T13:43:46.475Z,98263.63
2018-04-30T13:46:13.932Z,98255.05
2018-04-30T13:48:41.415Z,98243.73
2018-04-30T13:51:08.922Z,98235.50
2018-04-30T13:53:36.407Z,98230.71
2018-04-30T13:56:03.909Z,98227.66
2018-04-30T13:58:31.434Z,98230.21
2018-04-30T14:00:58.939Z,98220.04
2018-04-30T14:03:26.410Z,98230.63
2018-04-30T14:05:53.878Z,98220.19
2018-04-30T14:08:21.337Z,98219.14
2018-04-30T14:10:48.844Z,98227.21
2018-04-30T14:13:16.363Z,98227.13
2018-04-30T14:15:43.847Z,98231.25
2018-04-30T14:18:11.324Z,98224.02
2018-04-30T14:20:38.830Z,98237.62
2018-04-30T14:23:06.347Z,98243.11
2018-04-30T14:25:33.824Z,98238.97
2018-04-30T14:28:01.300Z,98241.30
2018-04-30T14:30:28.867Z,98240.28
2018-04-30T14:32:56.416Z,98238.77
2018-04-30T14:35:23.907Z,98241.59
2018-04-30T14:37:51.402Z,98240.87
2018-04-30T14:40:18.886Z,98247.25
2018-04-30T14:42:46.439Z,98254.41
2018-04-30T14:45:13.904Z,98254.39
2018-04-30T14:47:41.387Z,98252.77
2018-04-30T14:50:08.859Z,98234.45
2018-04-30T14:52:36.330Z,98241.17
2018-04-30T14:55:03.896Z,98238.73
2018-04-30T14:57:31.383Z,98246.90
2018-04-30T14:59:58.904Z,98245.20
2018-04-30T15:02:26.398Z,98256.72
2018-04-30T15:04:53.887Z,98259.75
2018-04-30T15:07:21.367Z,98252.00
2018-04-30T15:09:48.847Z,98247.00
2018-04-30T15:12:16.332Z,98261.50
2018-04-30T15:14:43.819Z,98240.70
2018-04-30T15:17:11.285Z,98264.45
2018-04-30T15:19:38.845Z,98258.48
2018-04-30T15:22:06.343Z,98259.34
2018-04-30T15:24:33.874Z,98240.73
2018-04-30T15:27:01.374Z,98263.46
2018-04-30T15:29:28.858Z,98240.01
2018-04-30T15:31:56.351Z,98243.91
2018-04-30T15:34:23.827Z,98245.00
2018-04-30T15:36:51.464Z,98244.06
2018-04-30T15:39:18.911Z,98242.44
2018-04-30T15:41:46.379Z,98237.86
2018-04-30T15:44:13.853Z,98241.28
2018-04-30T15:46:41.344Z,98232.70
2018-04-30T15:49:08.861Z,98222.01
2018-04-30T15:51:36.347Z,98227.53
2018-04-30T15:54:03.831Z,98221.93
2018-04-30T15:56:31.364Z,98227.75
2018-04-30T15:58:58.847Z,98230.20
2018-04-30T16:01:26.415Z,98235.94
2018-04-30T16:03:53.808Z,98238.83
2018-04-30T16:06:21.277Z,98242.09
2018-04-30T16:08:48.802Z,98241.27
2018-04-30T16:11:16.278Z,98229.48
2018-04-30T16:13:43.796Z,98248.53
2018-04-30T16:16:11.283Z,98252.72
2018-04-30T16:18:38.766Z,98241.96
2018-04-30T16:21:06.245Z,98243.03
2018-04-30T16:23:33.711Z,98237.91
2018-04-30T16:26:01.158Z,98250.80
2018-04-30T16:28:28.643Z,98252.49
2018-04-30T16:30:56.280Z,98244.23
2018-04-30T16:33:23.750Z,98253.98
2018-04-30T16:35:51.369Z,98255.32
2018-04-30T16:38:18.881Z,98256.52
2018-04-30T16:40:46.413Z,98253.83
2018-04-30T16:43:13.943Z,98252.78
2018-04-30T16:45:41.396Z,98254.47
2018-04-30T16:48:08.896Z,98259.91
2018-04-30T16:50:36.358Z,98259.97
2018-04-30T16:53:03.871Z,98255.37
2018-04-30T16:55:31.351Z,98263.34
2018-04-30T16:57:58.805Z,98258.27
2018-04-30T17:00:26.347Z,98260.42
2018-04-30T17:02:53.897Z,98264.31
2018-04-30T17:05:21.334Z,98260.83
2018-04-30T17:07:48.832Z,98264.72
2018-04-30T17:10:16.304Z,98266.06
2018-04-30T17:12:43.779Z,98258.48
2018-04-30T17:15:11.297Z,98270.10
2018-04-30T17:17:38.767Z,98263.91
2018-04-30T17:20:06.237Z,98265.28
2018-04-30T17:22:33.791Z,98272.66
2018-04-30T17:25:01.276Z,98276.78
2018-04-30T17:27:28.756Z,98276.23
2018-04-30T17:29:56.277Z,98275.73
2018-04-30T17:32:23.751Z,98286.17
2018-04-30T17:34:51.260Z,98286.73
2018-04-30T17:37:18.774Z,98296.41
2018-04-30T17:39:46.282Z,98294.42
2018-04-30T17:42:13.765Z,98294.09
2018-04-30T17:44:41.283Z,98302.08
2018-04-30T17:47:08.802Z,98301.10
2018-04-30T17:49:36.285Z,98307.28
2018-04-30T17:52:03.753Z,98314.99
2018-04-30T17:54:31.254Z,98322.24
2018-04-30T17:56:58.731Z,98326.83
2018-04-30T17:59:26.194Z,98328.41
2018-04-30T18:01:53.662Z,98334.53
2018-04-30T18:04:21.146Z,98334.09
2018-04-30T18:06:48.660Z,98331.67
2018-04-30T18:09:16.126Z,98328.79
2018-04-30T18:11:43.600Z,98335.16
2018-04-30T18:14:11.174Z,98341.33
2018-04-30T18:16:38.685Z,98338.61
2018-04-30T18:19:06.189Z,98342.42
2018-04-30T18:21:33.706Z,98347.48
2018-04-30T18:24:01.170Z,98346.73
2018-04-30T18:26:28.691Z,98355.44
2018-04-30T18:28:56.122Z,98361.13
2018-04-30T18:31:23.602Z,98356.43
2018-04-30T18:33:51.099Z,98358.86
2018-04-30T18:36:18.570Z,98365.22
2018-04-30T18:38:46.155Z,98369.59
2018-04-30T18:41:13.584Z,98367.04
2018-04-30T18:43:41.048Z,98358.50
2018-04-30T18:46:08.569Z,98368.89
2018-04-30T18:48:36.136Z,98374.48
2018-04-30T18:51:03.625Z,98368.92
2018-04-30T18:53:31.106Z,98377.17
2018-04-30T18:55:58.582Z,98380.95
2018-04-30T18:58:26.090Z,98385.55
2018-04-30T19:00:53.595Z,98381.10
2018-04-30T19:03:21.058Z,98384.98
2018-04-30T19:05:48.567Z,98388.34
2018-04-30T19:08:16.075Z,98391.27
2018-04-30T19:10:43.557Z,98382.59
2018-04-30T19:13:11.075Z,98395.11
2018-04-30T19:15:38.583Z,98402.41
2018-04-30T19:18:06.120Z,98396.55
2018-04-30T19:20:33.619Z,98404.55
2018-04-30T19:23:01.115Z,98401.45
2018-04-30T19:25:28.584Z,98403.82
2018-04-30T19:27:56.070Z,98398.67
2018-04-30T19:30:23.554Z,98398.25
2018-04-30T19:32:51.032Z,98404.72
2018-04-30T19:35:18.522Z,98394.80
2018-04-30T19:37:46.006Z,98401.69
2018-04-30T19:40:13.488Z,98411.20
2018-04-30T19:42:40.965Z,98404.70
2018-04-30T19:45:08.487Z,98408.16
2018-04-30T19:47:35.962Z,98403.95
2018-04-30T19:50:03.472Z,98402.22
2018-04-30T19:52:30.988Z,98405.32
2018-04-30T19:54:58.441Z,98397.70
2018-04-30T19:57:25.915Z,98401.76
2018-04-30T19:59:53.379Z,98399.09
2018-04-30T20:02:20.898Z,98399.61
2018-04-30T20:04:48.436Z,98403.80
2018-04-30T20:07:15.945Z,98409.70
2018-04-30T20:09:43.376Z,98411.78
2018-04-30T20:12:10.891Z,98419.56
2018-04-30T20:14:38.431Z,98427.40
2018-04-30T20:17:05.942Z,98426.61
2018-04-30T20:19:33.415Z,98422.76
2018-04-30T20:22:00.897Z,98422.98
2018-04-30T20:24:28.360Z,98428.98
2018-04-30T20:26:55.998Z,98417.94
2018-04-30T20:29:24.556Z,98425.52
2018-04-30T20:31:52.071Z,98426.07
2018-04-30T20:34:19.553Z,98431.47
2018-04-30T20:36:47.036Z,98438.08
2018-04-30T20:39:14.565Z,98435.69
2018-04-30T20:41:42.033Z,98433.67
2018-04-30T20:44:09.504Z,98433.11
2018-04-30T20:46:37.104Z,98437.87
2018-04-30T20:49:04.620Z,98446.28
2018-04-30T20:51:32.136Z,98446.39
2018-04-30T20:53:59.636Z,98443.42
2018-04-30T20:56:27.120Z,98439.60
2018-04-30T20:58:54.628Z,98443.94
2018-04-30T21:01:22.178Z,98447.34
2018-04-30T21:03:49.662Z,98447.34
2018-04-30T21:06:17.167Z,98444.94
2018-04-30T21:08:56.365Z,98445.46
2018-04-30T21:11:23.858Z,98450.50
2018-04-30T21:13:51.378Z,98447.51
2018-04-30T21:16:18.957Z,98450.00
2018-04-30T21:18:47.325Z,98448.86
2018-04-30T21:21:14.835Z,98455.53
2018-04-30T21:23:42.334Z,98461.73
2018-04-30T21:26:09.878Z,98461.64
2018-04-30T21:28:37.367Z,98465.08
2018-04-30T21:31:04.962Z,98462.16
2018-04-30T21:33:32.442Z,98473.97
2018-04-30T21:36:00.008Z,98477.70
2018-04-30T21:38:27.760Z,98486.10
2018-04-30T21:40:55.238Z,98489.81
2018-04-30T21:43:22.759Z,98484.67
2018-04-30T21:45:50.266Z,98488.03
2018-04-30T21:48:17.750Z,98491.04
2018-04-30T21:50:45.265Z,98489.20
2018-04-30T21:53:12.845Z,98491.98
2018-04-30T21:55:40.345Z,98497.34
2018-04-30T21:58:09.793Z,98499.88
2018-04-30T22:00:38.409Z,98499.77
2018-04-30T22:03:05.975Z,98500.50
2018-04-30T22:05:33.475Z,98501.79
2018-04-30T22:08:00.944Z,98497.72
2018-04-30T22:10:28.533Z,98501.64
2018-04-30T22:12:56.099Z,98503.39
2018-04-30T22:15:26.232Z,98503.21
2018-04-30T22:17:53.753Z,98499.08
2018-04-30T22:20:23.248Z,98502.39
2018-04-30T22:22:50.812Z,98510.11
2018-04-30T22:25:18.341Z,98511.92
2018-04-30T22:27:46.592Z,98521.23
2018-04-30T22:30:14.103Z,98514.48
2018-04-30T22:32:42.365Z,98516.59
2018-04-30T22:35:09.861Z,98517.08
2018-04-30T22:37:37.383Z,98516.68
2018-04-30T22:40:04.908Z,98513.47
2018-04-30T22:42:32.409Z,98519.43
2018-04-30T22:44:59.886Z,98512.78
2018-04-30T22:47:27.367Z,98517.61
2018-04-30T22:49:54.906Z,98515.11
2018-04-30T22:52:22.501Z,98522.09
2018-04-30T22:54:51.798Z,98523.13
2018-04-30T22:57:19.313Z,98516.55
2018-04-30T22:59:46.816Z,98523.02
2018-04-30T23:11:55.413Z,98532.56
2018-04-30T23:14:22.930Z,98533.95
2018-04-30T23:16:50.475Z,98531.24
2018-04-30T23:19:18.032Z,98530.37
2018-04-30T23:21:46.884Z,98534.42
2018-04-30T23:24:14.371Z,98541.48
2018-04-30T23:26:41.907Z,98534.45
2018-04-30T23:29:09.412Z,98546.00
2018-04-30T23:31:39.438Z,98552.95
2018-04-30T23:34:06.966Z,98548.87
2018-04-30T23:36:34.552Z,98556.14
2018-04-30T23:39:02.082Z,98551.28
2018-04-30T23:41:29.550Z,98553.58
2018-04-30T23:43:57.216Z,98554.63
2018-04-30T23:46:24.679Z,98558.20
2018-04-30T23:48:52.203Z,98555.37
2018-04-30T23:51:19.684Z,98555.09
2018-04-30T23:53:47.214Z,98558.05
2018-04-30T23:56:14.711Z,98552.99
2018-04-30T23:58:43.103Z,98555.19
